KOSC/OSC METAR and TAF weather

Enter ICAO airport designator
Station Type Date Time Source
KOSC METAR 2019/08/24 06:56 UTC NOAA

KOSC 240656Z AUTO 34004KT 10SM SCT033 SCT039 BKN047 11/10 A3029 RMK AO2 T01100103


Station Type Date Time Source
KOSC Decoded METAR 2019/08/24 06:56 UTC NOAA

Station name not available
Aug 24, 2019 - 02:56 AM EDT / 2019.08.24 0656 UTC
Wind: from the NNW (340 degrees) at 5 MPH (4 KT):0
Visibility: 10 mile(s):0
Sky conditions: mostly cloudy
Temperature: 51.8 F (11.0 C)
Dew Point: 50.5 F (10.3 C)
Relative Humidity: 95%
Pressure (altimeter): 30.29 in. Hg (1025 hPa)
ob: KOSC 240656Z AUTO 34004KT 10SM SCT033 SCT039 BKN047 11/10 A3029 RMK AO2 T01100103
cycle: 7

Station Type Date Time Source
KOSC TAF UTC NOAA

Error!

Example: see airport list